Iris Ace — ZGBS2 — position and weather

sailwx.info

Track history (hours):
 
Tides and Currents Weather Stations Pressure Air Temp Water Temp Dewpoint Dewpoint Depression Visibility Wind Speed Wind Dir Waves Ship Positions

Iris Ace

Last reported at 2018-Jun-19 01:15 UTC. Time now 2018-Jun-20 09:47 UTC.
Position N 36°33' W 001°05'.

Length 188 m; draft 7.9 m.

Type: Cargo ship. MMSI: 319392000.

Date/timePositionNaut miles runAvg speedWind from/ knotsBaromVisibWave heightAir tempDewpointWater temp
2018-Jun-19 01:15N 36°33' W 001°05'412.6
2018-Jun-19 00:56N 36°34' W 000°60'712.7
2018-Jun-19 00:23N 36°35' W 000°51'712.9
2018-Jun-18 23:52N 36°35' W 000°43'513.1
2018-Jun-18 23:28N 36°36' W 000°36'612.7
2018-Jun-18 23:00N 36°37' W 000°29'1812.7
2018-Jun-18 21:35N 36°39' W 000°07'612.9
2018-Jun-18 21:08N 36°40' E 000°00'213.0
2018-Jun-18 20:57N 36°41' E 000°03'613.0
2018-Jun-18 20:30N 36°42' E 000°10'712.9
2018-Jun-18 19:58N 36°42' E 000°19'712.5
2018-Jun-18 19:24N 36°44' E 000°28'512.4
2018-Jun-18 19:00N 36°44' E 000°34'612.6
2018-Jun-18 18:30N 36°45' E 000°42'612.7
2018-Jun-18 18:00N 36°46' E 000°49'612.5
2018-Jun-18 17:30N 36°47' E 000°57'612.5
2018-Jun-18 16:59N 36°48' E 001°05'612.4
2018-Jun-18 16:30N 36°49' E 001°13'612.2
2018-Jun-18 16:00N 36°49' E 001°20'612.3
2018-Jun-18 15:30N 36°49' E 001°28'612.5
2018-Jun-18 15:00N 36°50' E 001°35'713.3
2018-Jun-18 14:30N 36°51' E 001°44'815.7
2018-Jun-18 14:00N 36°52' E 001°53'712.8
2018-Jun-18 13:27N 36°53' E 002°02'612.6
2018-Jun-18 13:00N 36°54' E 002°09'612.7
2018-Jun-18 12:30N 36°55' E 002°17'713.1
2018-Jun-18 11:59N 36°56' E 002°26'61412.5
2018-Jun-16 10:47N 36°18' E 015°08'41812.2
2018-Jun-15 00:25N 36°50' E 023°47'19513.0
2018-Jun-14 09:25N 39°44' E 025°40'614.0
2018-Jun-14 09:01N 39°49' E 025°44'714.0
2018-Jun-14 08:30N 39°54' E 025°50'714.0
2018-Jun-14 07:59N 39°59' E 025°57'913.6
2018-Jun-14 07:19N 40°01' E 026°09'3512.7
2018-Jun-14 04:33N 40°25' E 026°43'110.5
2018-Jun-14 04:29N 40°25' E 026°44'4711.5
2018-Jun-14 00:22N 40°46' E 027°40'514.2
2018-Jun-14 00:00N 40°46' E 027°46'1114.2
2018-Jun-13 23:16N 40°48' E 028°00'414.0
2018-Jun-13 23:00N 40°48' E 028°05'713.9
2018-Jun-13 22:30N 40°49' E 028°14'510.4
2018-Jun-13 22:00N 40°45' E 028°19'815.1
2018-Jun-13 21:30N 40°41' E 028°27'816.6
2018-Jun-13 21:00N 40°38' E 028°38'815.5
2018-Jun-13 20:30N 40°31' E 028°42'28 1.8
2018-Jun-13 04:58N 40°45' E 029°15'611.4
2018-Jun-13 04:24N 40°44' E 029°23'  
2018-Jun-10 14:00N 37°36' E 023°49'815.1
2018-Jun-10 13:30N 37°41' E 023°42'816.7
2018-Jun-10 13:00N 37°49' E 023°37'611.9
2018-Jun-10 12:30N 37°55' E 023°37'3 5.6
2018-Jun-10 12:00N 37°57' E 023°36'0 0.8
2018-Jun-10 11:29N 37°58' E 023°36'0 0.0
2018-Jun-10 10:59N 37°58' E 023°36'0 0.0
2018-Jun-10 10:30N 37°58' E 023°36'0 0.0
2018-Jun-10 10:01N 37°58' E 023°36'0 0.0
2018-Jun-10 09:30N 37°58' E 023°36'0 0.0
2018-Jun-10 09:00N 37°58' E 023°36'0 0.0
2018-Jun-10 08:30N 37°58' E 023°36'0 0.0
2018-Jun-10 08:00N 37°58' E 023°36'0 0.0
2018-Jun-10 07:31N 37°58' E 023°36'0 0.0
2018-Jun-10 07:00N 37°58' E 023°36'0 0.0
2018-Jun-10 06:30N 37°58' E 023°36'0 0.0
2018-Jun-10 06:00N 37°58' E 023°36'0 0.0
2018-Jun-10 05:30N 37°58' E 023°36'1 2.0
2018-Jun-10 05:00N 37°57' E 023°36'1 2.8
2018-Jun-10 04:31N 37°55' E 023°37'2 4.3
2018-Jun-10 04:00N 37°54' E 023°35'1 1.5
2018-Jun-10 03:30N 37°53' E 023°36'1 1.9
2018-Jun-10 03:01N 37°54' E 023°35'1 2.9
2018-Jun-10 02:30N 37°53' E 023°36'4 7.0
2018-Jun-10 02:00N 37°51' E 023°40'713.9
2018-Jun-10 01:31N 37°44' E 023°43'714.8
2018-Jun-10 01:01N 37°37' E 023°47'715.0
2018-Jun-10 00:31N 37°30' E 023°45'915.6
2018-Jun-09 23:57N 37°22' E 023°42'  
Track history (hours):
 
Tides and Currents Weather Stations Pressure Air Temp Water Temp Dewpoint Dewpoint Depression Visibility Wind Speed Wind Dir Waves Ship Positions

Iris Ace

Last reported at 2018-Jun-19 01:15 UTC. Time now 2018-Jun-20 09:47 UTC.
Position N 36°33' W 001°05'.

Length 188 m; draft 7.9 m.

Type: Cargo ship. MMSI: 319392000.

Date/timePositionNaut miles runAvg speedWind from/ knotsBaromVisibWave heightAir tempDewpointWater temp
2018-Jun-19 01:15N 36°33' W 001°05'412.6
2018-Jun-19 00:56N 36°34' W 000°60'712.7
2018-Jun-19 00:23N 36°35' W 000°51'712.9
2018-Jun-18 23:52N 36°35' W 000°43'513.1
2018-Jun-18 23:28N 36°36' W 000°36'612.7
2018-Jun-18 23:00N 36°37' W 000°29'1812.7
2018-Jun-18 21:35N 36°39' W 000°07'612.9
2018-Jun-18 21:08N 36°40' E 000°00'213.0
2018-Jun-18 20:57N 36°41' E 000°03'613.0
2018-Jun-18 20:30N 36°42' E 000°10'712.9
2018-Jun-18 19:58N 36°42' E 000°19'712.5
2018-Jun-18 19:24N 36°44' E 000°28'512.4
2018-Jun-18 19:00N 36°44' E 000°34'612.6
2018-Jun-18 18:30N 36°45' E 000°42'612.7
2018-Jun-18 18:00N 36°46' E 000°49'612.5
2018-Jun-18 17:30N 36°47' E 000°57'612.5
2018-Jun-18 16:59N 36°48' E 001°05'612.4
2018-Jun-18 16:30N 36°49' E 001°13'612.2
2018-Jun-18 16:00N 36°49' E 001°20'612.3
2018-Jun-18 15:30N 36°49' E 001°28'612.5
2018-Jun-18 15:00N 36°50' E 001°35'713.3
2018-Jun-18 14:30N 36°51' E 001°44'815.7
2018-Jun-18 14:00N 36°52' E 001°53'712.8
2018-Jun-18 13:27N 36°53' E 002°02'612.6
2018-Jun-18 13:00N 36°54' E 002°09'612.7
2018-Jun-18 12:30N 36°55' E 002°17'713.1
2018-Jun-18 11:59N 36°56' E 002°26'61412.5
2018-Jun-16 10:47N 36°18' E 015°08'41812.2
2018-Jun-15 00:25N 36°50' E 023°47'19513.0
2018-Jun-14 09:25N 39°44' E 025°40'614.0
2018-Jun-14 09:01N 39°49' E 025°44'714.0
2018-Jun-14 08:30N 39°54' E 025°50'714.0
2018-Jun-14 07:59N 39°59' E 025°57'913.6
2018-Jun-14 07:19N 40°01' E 026°09'3512.7
2018-Jun-14 04:33N 40°25' E 026°43'110.5
2018-Jun-14 04:29N 40°25' E 026°44'4711.5
2018-Jun-14 00:22N 40°46' E 027°40'514.2
2018-Jun-14 00:00N 40°46' E 027°46'1114.2
2018-Jun-13 23:16N 40°48' E 028°00'414.0
2018-Jun-13 23:00N 40°48' E 028°05'713.9
2018-Jun-13 22:30N 40°49' E 028°14'510.4
2018-Jun-13 22:00N 40°45' E 028°19'815.1
2018-Jun-13 21:30N 40°41' E 028°27'816.6
2018-Jun-13 21:00N 40°38' E 028°38'815.5
2018-Jun-13 20:30N 40°31' E 028°42'28 1.8
2018-Jun-13 04:58N 40°45' E 029°15'611.4
2018-Jun-13 04:24N 40°44' E 029°23'  
2018-Jun-10 14:00N 37°36' E 023°49'815.1
2018-Jun-10 13:30N 37°41' E 023°42'816.7
2018-Jun-10 13:00N 37°49' E 023°37'611.9
2018-Jun-10 12:30N 37°55' E 023°37'3 5.6
2018-Jun-10 12:00N 37°57' E 023°36'0 0.8
2018-Jun-10 11:29N 37°58' E 023°36'0 0.0
2018-Jun-10 10:59N 37°58' E 023°36'0 0.0
2018-Jun-10 10:30N 37°58' E 023°36'0 0.0
2018-Jun-10 10:01N 37°58' E 023°36'0 0.0
2018-Jun-10 09:30N 37°58' E 023°36'0 0.0
2018-Jun-10 09:00N 37°58' E 023°36'0 0.0
2018-Jun-10 08:30N 37°58' E 023°36'0 0.0
2018-Jun-10 08:00N 37°58' E 023°36'0 0.0
2018-Jun-10 07:31N 37°58' E 023°36'0 0.0
2018-Jun-10 07:00N 37°58' E 023°36'0 0.0
2018-Jun-10 06:30N 37°58' E 023°36'0 0.0
2018-Jun-10 06:00N 37°58' E 023°36'0 0.0
2018-Jun-10 05:30N 37°58' E 023°36'1 2.0
2018-Jun-10 05:00N 37°57' E 023°36'1 2.8
2018-Jun-10 04:31N 37°55' E 023°37'2 4.3
2018-Jun-10 04:00N 37°54' E 023°35'1 1.5
2018-Jun-10 03:30N 37°53' E 023°36'1 1.9
2018-Jun-10 03:01N 37°54' E 023°35'1 2.9
2018-Jun-10 02:30N 37°53' E 023°36'4 7.0
2018-Jun-10 02:00N 37°51' E 023°40'713.9
2018-Jun-10 01:31N 37°44' E 023°43'714.8
2018-Jun-10 01:01N 37°37' E 023°47'715.0
2018-Jun-10 00:31N 37°30' E 023°45'915.6
2018-Jun-09 23:57N 37°22' E 023°42'  

Dump ship's entire track history